Time;durP1;ratioP1;P1;durP2;ratioP2;P2;SDS_P1;SDS_P2;PMS_P1;PMS_P2;Temp;Humidity;BMP_temperature;BMP_pressure;BME280_temperature;BME280_humidity;BME280_pressure;Samples;Min_cycle;Max_cycle;Signal;HPM_P1;HPM_P2
2021/05/22 07:10:45;;;;;;;762.65;44.72;;;5.50;99.90;;;;;;6327655;22;20384;-94
2021/05/22 07:13:34;;;;;;;1523.03;64.10;;;5.50;99.90;;;;;;6373685;22;20410;-94
2021/05/22 07:16:08;;;;;;;894.65;46.85;;;5.50;99.90;;;;;;6350652;22;20376;-93
2021/05/22 07:18:36;;;;;;;1520.83;65.70;;;5.50;99.90;;;;;;6351957;22;20458;-91
2021/05/22 07:21:04;;;;;;;544.28;35.28;;;5.50;99.90;;;;;;6349577;22;20404;-92
2021/05/22 07:23:31;;;;;;;17.02;9.93;;;5.60;99.90;;;;;;6356019;22;20385;-94
2021/05/22 07:26:02;;;;;;;506.77;32.17;;;5.60;99.90;;;;;;6353109;22;20398;-92
2021/05/22 07:28:32;;;;;;;10.43;7.23;;;5.60;99.90;;;;;;6354859;22;20389;-93
2021/05/22 07:31:01;;;;;;;314.20;21.30;;;5.60;99.90;;;;;;6365491;22;20371;-91
2021/05/22 07:33:29;;;;;;;352.77;25.10;;;5.60;99.90;;;;;;6366912;22;20464;-94
2021/05/22 07:35:57;;;;;;;30.40;10.80;;;5.60;99.90;;;;;;6350524;22;20803;-93
2021/05/22 07:38:31;;;;;;;17.45;8.88;;;5.60;99.90;;;;;;6349240;22;20405;-94
2021/05/22 07:41:03;;;;;;;13.30;9.40;;;5.60;99.90;;;;;;6348849;22;20436;-94
2021/05/22 07:43:33;;;;;;;16.27;10.23;;;5.60;99.90;;;;;;6349650;22;20478;-93
2021/05/22 07:46:00;;;;;;;239.03;24.37;;;5.60;99.90;;;;;;6350254;22;20471;-90
2021/05/22 07:48:30;;;;;;;44.57;13.80;;;5.70;99.90;;;;;;6353389;22;20388;-95
2021/05/22 07:53:25;;;;;;;12.68;9.23;;;5.80;99.90;;;;;;6377601;22;20412;-91
2021/05/22 07:55:52;;;;;;;16.50;9.50;;;5.80;99.90;;;;;;6319812;22;20444;-91
2021/05/22 07:58:19;;;;;;;10.37;7.27;;;5.90;99.90;;;;;;6317472;22;20377;-93
2021/05/22 08:00:47;;;;;;;11.63;7.20;;;6.00;99.90;;;;;;6316532;22;20385;-91
2021/05/22 08:03:14;;;;;;;13.95;8.18;;;5.90;99.90;;;;;;6316741;22;20383;-94
2021/05/22 08:05:41;;;;;;;9.40;7.40;;;6.00;99.90;;;;;;6316882;22;20486;-92
2021/05/22 08:08:08;;;;;;;9.35;6.50;;;6.00;99.90;;;;;;6318078;22;20383;-92
2021/05/22 08:10:35;;;;;;;11.80;6.03;;;6.10;99.90;;;;;;6315835;22;20412;-94
2021/05/22 08:13:03;;;;;;;9.65;6.03;;;6.20;99.90;;;;;;6314406;22;20380;-95
2021/05/22 08:15:30;;;;;;;8.35;4.90;;;6.40;99.90;;;;;;6315348;22;20392;-92
2021/05/22 08:17:58;;;;;;;7.85;5.18;;;6.50;99.90;;;;;;6313423;22;20381;-92
2021/05/22 08:20:24;;;;;;;6.97;3.95;;;6.70;99.90;;;;;;6313873;22;20381;-92
2021/05/22 08:22:51;;;;;;;4.43;3.15;;;6.60;99.90;;;;;;6315303;22;20469;-92
2021/05/22 08:25:19;;;;;;;5.20;3.03;;;6.80;99.90;;;;;;6317071;22;20384;-91
2021/05/22 08:27:52;;;;;;;6.32;2.85;;;7.00;99.90;;;;;;6317971;22;20472;-96
2021/05/22 08:30:21;;;;;;;3.05;2.10;;;7.00;99.90;;;;;;6315514;22;20380;-94
2021/05/22 08:33:05;;;;;;;3.03;1.80;;;7.10;99.90;;;;;;6318571;22;20376;-93
2021/05/22 08:35:35;;;;;;;3.28;1.20;;;7.30;99.90;;;;;;6318404;22;20365;-93
2021/05/22 08:38:02;;;;;;;2.30;1.02;;;7.40;99.90;;;;;;6315158;22;20384;-93
2021/05/22 08:40:29;;;;;;;4.10;1.50;;;7.30;99.90;;;;;;6313867;22;20377;-93
2021/05/22 08:42:56;;;;;;;2.30;1.33;;;7.40;99.90;;;;;;6312360;22;20396;-92
2021/05/22 08:45:24;;;;;;;2.33;1.27;;;7.40;99.90;;;;;;6312551;22;20469;-92
2021/05/22 08:47:53;;;;;;;6.95;1.77;;;7.50;99.90;;;;;;6312870;22;20397;-92
2021/05/22 08:50:21;;;;;;;4.00;1.50;;;7.50;99.90;;;;;;6313815;22;20441;-93
2021/05/22 08:52:49;;;;;;;2.95;1.30;;;7.70;99.90;;;;;;6313589;22;20471;-93
2021/05/22 08:55:17;;;;;;;3.78;1.35;;;7.80;99.90;;;;;;6313043;22;20853;-92
2021/05/22 08:57:44;;;;;;;2.70;1.30;;;7.80;99.90;;;;;;6312953;22;20742;-92
2021/05/22 09:00:15;;;;;;;5.00;1.77;;;7.90;99.90;;;;;;6314517;22;20901;-93
2021/05/22 09:02:45;;;;;;;3.43;1.50;;;8.00;99.90;;;;;;6282964;22;20347;-94
2021/05/22 09:05:27;;;;;;;5.30;1.70;;;8.10;99.90;;;;;;6282844;22;20395;-93
2021/05/22 09:08:00;;;;;;;2.97;1.33;;;8.10;99.90;;;;;;6282623;22;20379;-94
2021/05/22 09:10:28;;;;;;;4.63;1.67;;;8.20;99.90;;;;;;6283403;22;20442;-92
2021/05/22 09:12:58;;;;;;;2.80;1.30;;;8.60;99.90;;;;;;6281486;22;20433;-93
2021/05/22 09:15:28;;;;;;;3.25;1.30;;;8.50;99.90;;;;;;6282166;22;20393;-94
2021/05/22 09:18:05;;;;;;;5.77;1.60;;;8.40;99.90;;;;;;6282275;22;20362;-94
2021/05/22 09:20:49;;;;;;;3.88;1.52;;;8.60;99.90;;;;;;6282008;22;20509;-94
2021/05/22 09:23:23;;;;;;;4.15;1.40;;;8.60;99.90;;;;;;6281765;22;20391;-94
2021/05/22 09:25:59;;;;;;;4.82;1.70;;;8.60;99.90;;;;;;6304811;22;20401;-93
2021/05/22 09:28:29;;;;;;;3.25;1.38;;;8.70;99.90;;;;;;6296707;22;20901;-93
2021/05/22 09:30:57;;;;;;;3.28;1.52;;;8.70;99.90;;;;;;6282211;22;20703;-93
2021/05/22 09:33:29;;;;;;;3.10;1.27;;;9.10;99.90;;;;;;6281894;22;20379;-94
2021/05/22 09:36:07;;;;;;;3.90;1.60;;;9.40;99.90;;;;;;6281806;22;20393;-94
2021/05/22 09:38:45;;;;;;;3.53;1.10;;;9.60;99.90;;;;;;6281709;22;20382;-93
2021/05/22 09:41:26;;;;;;;5.72;1.55;;;9.60;99.90;;;;;;6281423;22;20409;-94
2021/05/22 09:44:13;;;;;;;4.32;1.40;;;9.50;99.90;;;;;;6281822;22;20378;-94
2021/05/22 09:46:50;;;;;;;3.83;1.30;;;9.80;99.90;;;;;;6283038;22;20395;-94
2021/05/22 09:49:29;;;;;;;3.03;1.40;;;9.60;99.90;;;;;;6280878;22;20470;-93
2021/05/22 09:52:00;;;;;;;6.97;1.67;;;9.50;99.90;;;;;;6281947;22;20382;-93
2021/05/22 09:54:54;;;;;;;5.45;1.70;;;9.30;99.90;;;;;;6281608;22;20889;-94
2021/05/22 09:57:22;;;;;;;3.90;1.30;;;9.40;99.90;;;;;;6276698;22;20375;-94
2021/05/22 10:00:07;;;;;;;2.97;1.27;;;9.60;99.90;;;;;;6281726;22;20870;-95
2021/05/22 10:02:42;;;;;;;5.33;1.40;;;9.80;99.90;;;;;;6281629;22;20371;-94
2021/05/22 10:05:18;;;;;;;5.33;1.60;;;10.00;99.90;;;;;;6282730;22;20401;-92
2021/05/22 10:07:48;;;;;;;5.93;1.63;;;10.10;99.90;;;;;;6295072;22;20378;-94
2021/05/22 10:10:16;;;;;;;5.10;1.50;;;10.10;99.90;;;;;;6300242;22;20385;-94
2021/05/22 10:12:45;;;;;;;4.88;1.38;;;10.20;99.90;;;;;;6303705;22;20388;-93
2021/05/22 10:15:17;;;;;;;4.97;1.33;;;10.20;99.90;;;;;;6303362;22;20405;-94
2021/05/22 10:17:45;;;;;;;3.50;1.10;;;10.50;99.90;;;;;;6285766;22;20730;-94
2021/05/22 10:20:13;;;;;;;4.10;1.00;;;10.60;99.90;;;;;;6281455;22;20549;-94
2021/05/22 10:22:44;;;;;;;4.15;1.90;;;10.40;99.90;;;;;;6282622;22;20379;-93
2021/05/22 10:25:11;;;;;;;5.33;1.20;;;10.20;99.90;;;;;;6282690;22;20477;-91
2021/05/22 10:27:39;;;;;;;5.57;1.42;;;10.10;99.90;;;;;;6281064;22;20389;-94
2021/05/22 10:30:08;;;;;;;4.18;1.30;;;10.40;99.90;;;;;;6281761;22;20473;-93
2021/05/22 10:32:43;;;;;;;2.88;1.17;;;10.60;99.90;;;;;;6284103;22;20363;-94
2021/05/22 10:35:19;;;;;;;4.20;1.40;;;10.90;99.90;;;;;;6285683;22;20460;-94
2021/05/22 10:37:50;;;;;;;4.73;1.27;;;11.10;99.90;;;;;;6283410;22;20465;-95
2021/05/22 10:40:48;;;;;;;3.25;0.95;;;11.40;99.90;;;;;;6285495;22;20393;-95
2021/05/22 10:44:00;;;;;;;6.47;1.40;;;11.90;99.90;;;;;;6283729;22;20386;-94
2021/05/22 10:46:27;;;;;;;3.95;1.00;;;11.70;99.90;;;;;;6284248;22;20422;-94
2021/05/22 10:49:02;;;;;;;7.28;1.27;;;11.30;99.90;;;;;;6284661;22;20379;-94
2021/05/22 10:51:35;;;;;;;4.18;1.30;;;11.00;99.90;;;;;;6285022;22;20846;-93
2021/05/22 10:54:11;;;;;;;6.18;1.30;;;11.00;99.90;;;;;;6310667;22;20406;-93
2021/05/22 10:57:13;;;;;;;5.57;1.20;;;10.90;99.90;;;;;;6283970;22;20393;-93
2021/05/22 11:00:26;;;;;;;6.22;1.13;;;10.80;99.90;;;;;;6150884;23;20411;-94
2021/05/22 11:03:11;;;;;;;9.10;1.40;;;10.50;99.90;;;;;;6157686;23;20384;-92
2021/05/22 11:05:44;;;;;;;4.70;1.30;;;10.40;99.90;;;;;;6163099;23;20511;-95
2021/05/22 11:08:16;;;;;;;4.22;1.17;;;10.30;99.90;;;;;;6167733;23;20975;-94
2021/05/22 11:10:59;;;;;;;1.80;0.75;;;10.20;99.90;;;;;;6188945;23;20396;-95
2021/05/22 11:13:26;;;;;;;5.93;1.17;;;10.10;99.90;;;;;;6165004;23;20393;-94
2021/05/22 11:15:57;;;;;;;4.45;0.90;;;10.20;99.90;;;;;;6162477;23;20447;-94
2021/05/22 11:18:33;;;;;;;5.22;1.17;;;10.80;99.90;;;;;;6163412;23;20393;-95
2021/05/22 11:21:25;;;;;;;4.30;1.23;;;11.50;99.90;;;;;;6187478;23;20389;-94
2021/05/22 11:23:58;;;;;;;5.25;1.30;;;11.80;99.90;;;;;;6180299;23;20476;-94
2021/05/22 11:26:52;;;;;;;10.73;3.67;;;12.10;99.90;;;;;;6161609;23;20404;-93
2021/05/22 11:29:57;;;;;;;5.70;1.10;;;12.00;99.90;;;;;;6165424;23;20377;-93
2021/05/22 11:32:47;;;;;;;7.00;1.33;;;12.40;99.90;;;;;;6162970;23;20428;-94
2021/05/22 11:35:26;;;;;;;4.33;1.30;;;12.30;99.90;;;;;;6280176;22;20383;-93
2021/05/22 11:37:59;;;;;;;3.88;1.00;;;12.10;99.90;;;;;;6284736;22;20699;-94
2021/05/22 11:40:38;;;;;;;4.45;0.90;;;11.70;99.90;;;;;;6285662;22;20657;-93
2021/05/22 11:43:14;;;;;;;5.07;1.30;;;11.70;99.90;;;;;;6283145;22;20363;-93
2021/05/22 11:46:00;;;;;;;3.45;1.00;;;12.10;99.90;;;;;;6284188;22;20398;-95
2021/05/22 11:48:48;;;;;;;3.22;0.93;;;11.80;99.90;;;;;;6284000;22;20470;-93
2021/05/22 11:51:24;;;;;;;4.25;1.00;;;11.40;99.90;;;;;;6284207;22;20470;-94
2021/05/22 11:54:07;;;;;;;3.42;1.00;;;11.30;99.90;;;;;;6283116;22;20877;-94
2021/05/22 11:57:01;;;;;;;6.40;0.98;;;12.30;99.90;;;;;;6283806;22;20452;-93
2021/05/22 11:59:37;;;;;;;2.88;1.10;;;13.10;99.90;;;;;;6190905;23;20794;-94
2021/05/22 12:02:10;;;;;;;5.27;0.97;;;13.60;99.90;;;;;;6216124;23;20385;-95
2021/05/22 12:04:51;;;;;;;3.67;1.08;;;13.70;99.90;;;;;;6220539;23;20390;-93
2021/05/22 12:07:27;;;;;;;4.25;0.85;;;14.00;99.90;;;;;;6185002;23;20521;-92
2021/05/22 12:10:09;;;;;;;3.60;0.82;;;14.30;99.90;;;;;;6185067;23;20468;-93
2021/05/22 12:12:36;;;;;;;2.22;0.73;;;14.30;98.90;;;;;;6184850;23;20389;-94
2021/05/22 12:15:07;;;;;;;3.35;1.00;;;14.20;95.50;;;;;;6186075;23;20401;-94
2021/05/22 12:17:44;;;;;;;4.53;0.90;;;14.10;97.60;;;;;;6184864;23;20396;-93
2021/05/22 12:20:19;;;;;;;4.78;1.10;;;13.90;96.60;;;;;;6185397;23;20389;-95
2021/05/22 12:22:49;;;;;;;2.20;0.80;;;13.90;98.80;;;;;;6185494;23;20417;-94
2021/05/22 12:25:20;;;;;;;4.80;0.90;;;14.30;97.80;;;;;;6185519;23;20886;-95
2021/05/22 12:27:50;;;;;;;2.65;0.75;;;14.70;96.30;;;;;;6185279;23;20389;-94
2021/05/22 12:30:23;;;;;;;3.07;0.80;;;14.70;94.70;;;;;;6195244;23;20504;-94
2021/05/22 12:33:17;;;;;;;5.82;1.00;;;14.60;93.90;;;;;;6221084;23;20485;-94
2021/05/22 12:36:05;;;;;;;6.23;1.10;;;14.50;94.00;;;;;;6213524;23;20457;-96
2021/05/22 12:38:46;;;;;;;2.63;0.77;;;14.50;95.30;;;;;;6256219;22;20445;-94
2021/05/22 12:41:15;;;;;;;4.72;1.00;;;14.50;94.60;;;;;;6283358;22;20378;-95
2021/05/22 12:43:50;;;;;;;3.13;0.90;;;15.00;93.70;;;;;;6284163;22;20383;-95
2021/05/22 12:46:56;;;;;;;5.35;1.00;;;15.10;94.00;;;;;;6283870;22;20421;-95
2021/05/22 12:49:36;;;;;;;2.58;0.80;;;15.80;92.00;;;;;;6283440;22;20390;-94
2021/05/22 12:52:47;;;;;;;2.30;0.70;;;15.90;90.50;;;;;;6284207;22;20379;-94
2021/05/22 12:55:30;;;;;;;4.68;1.00;;;15.80;88.30;;;;;;6282922;22;20371;-96
2021/05/22 12:58:08;;;;;;;2.70;1.23;;;15.10;90.20;;;;;;6283178;22;20393;-95
2021/05/22 13:00:36;;;;;;;3.65;1.08;;;14.70;91.20;;;;;;6283048;22;20453;-95
2021/05/22 13:03:33;;;;;;;6.93;1.02;;;14.10;93.60;;;;;;6283441;22;20402;-96
2021/05/22 13:06:30;;;;;;;3.00;1.00;;;13.70;95.80;;;;;;6284138;22;20390;-95
2021/05/22 13:09:14;;;;;;;7.70;1.38;;;13.10;97.30;;;;;;6285470;22;20515;-95
2021/05/22 13:11:59;;;;;;;4.85;1.08;;;13.50;98.60;;;;;;6283971;22;20405;-95
2021/05/22 13:14:50;;;;;;;3.85;0.90;;;14.50;95.70;;;;;;6304859;22;20399;-95
2021/05/22 13:17:23;;;;;;;3.92;0.90;;;14.90;94.60;;;;;;6299763;22;20383;-96
2021/05/22 13:20:24;;;;;;;4.55;0.95;;;15.40;93.90;;;;;;6261433;22;20454;-95
2021/05/22 13:23:05;;;;;;;4.47;1.10;;;15.60;93.10;;;;;;6283702;22;20700;-95
2021/05/22 13:25:40;;;;;;;5.57;1.17;;;15.40;89.40;;;;;;6284413;22;20390;-95
2021/05/22 13:28:46;;;;;;;3.47;1.00;;;14.50;92.50;;;;;;6282397;22;20387;-94
2021/05/22 13:31:31;;;;;;;5.03;0.90;;;14.10;93.20;;;;;;6284114;22;20436;-96
2021/05/22 13:34:11;;;;;;;5.13;0.90;;;14.20;93.00;;;;;;6284304;22;20466;-95
2021/05/22 13:36:52;;;;;;;3.20;0.90;;;15.10;91.80;;;;;;6285029;22;20550;-95
2021/05/22 13:39:29;;;;;;;2.33;0.80;;;16.00;91.90;;;;;;6283732;22;20858;-95
2021/05/22 13:42:02;;;;;;;3.80;0.90;;;16.50;86.20;;;;;;6283180;22;20454;-96
2021/05/22 13:44:45;;;;;;;2.40;0.83;;;16.80;88.40;;;;;;6286446;22;20384;-95
2021/05/22 13:47:17;;;;;;;4.03;0.80;;;16.80;83.00;;;;;;6285705;22;20398;-96
2021/05/22 13:52:51;;;;;;;;;;;;;;;;;;;;;
2021/05/22 13:55:31;;;;;;;3.15;0.80;;;16.20;80.30;;;;;;6309762;22;20383;-94
2021/05/22 13:58:08;;;;;;;2.97;0.95;;;15.90;87.40;;;;;;6283059;22;20436;-96
2021/05/22 14:00:44;;;;;;;3.78;0.90;;;16.50;84.00;;;;;;6311363;22;20375;-96
2021/05/22 14:03:11;;;;;;;3.20;1.00;;;16.60;78.70;;;;;;6282531;22;20389;-94
2021/05/22 14:05:45;;;;;;;2.95;1.00;;;15.60;84.50;;;;;;6283717;22;20382;-95
2021/05/22 14:08:26;;;;;;;3.03;0.80;;;15.90;84.70;;;;;;6287009;22;20402;-95
2021/05/22 14:11:22;;;;;;;4.73;1.20;;;16.40;82.50;;;;;;6283747;22;20445;-95
2021/05/22 14:14:07;;;;;;;2.28;0.90;;;17.00;81.80;;;;;;6210765;22;20477;-94
2021/05/22 14:16:54;;;;;;;3.03;0.80;;;17.10;77.80;;;;;;6294237;22;20367;-94
2021/05/22 14:19:38;;;;;;;3.25;1.00;;;16.80;76.70;;;;;;6289730;22;20374;-94
2021/05/22 14:22:10;;;;;;;4.82;0.93;;;15.70;76.60;;;;;;6305329;22;20382;-96
2021/05/22 14:24:40;;;;;;;2.90;0.80;;;14.80;82.80;;;;;;6301031;22;20374;-95
2021/05/22 14:27:20;;;;;;;4.35;1.00;;;14.90;82.30;;;;;;6281940;22;20398;-95
2021/05/22 14:29:55;;;;;;;3.50;0.88;;;15.00;85.80;;;;;;6285040;22;20387;-95
2021/05/22 14:32:43;;;;;;;4.75;1.00;;;15.60;80.60;;;;;;6283898;22;20374;-95
2021/05/22 14:35:18;;;;;;;2.80;0.93;;;16.50;76.80;;;;;;6245929;23;20719;-96
2021/05/22 14:37:55;;;;;;;3.42;0.90;;;16.60;77.50;;;;;;6214593;23;20426;-96
2021/05/22 14:40:28;;;;;;;4.85;0.95;;;16.50;78.60;;;;;;6216175;23;20464;-94
2021/05/22 14:42:58;;;;;;;3.63;0.70;;;16.40;78.40;;;;;;6214809;23;20387;-93
2021/05/22 14:45:37;;;;;;;3.67;0.90;;;15.50;81.70;;;;;;6216541;23;20478;-96
2021/05/22 14:48:21;;;;;;;3.97;1.00;;;15.70;84.00;;;;;;6215139;23;20458;-95
2021/05/22 14:50:50;;;;;;;2.85;0.90;;;16.50;78.20;;;;;;6216612;23;20383;-93
2021/05/22 14:53:23;;;;;;;3.40;0.90;;;16.90;77.40;;;;;;6214379;23;20478;-94
2021/05/22 14:56:24;;;;;;;2.58;0.85;;;17.20;72.70;;;;;;6214517;23;20478;-95
2021/05/22 14:59:02;;;;;;;6.82;0.82;;;17.00;74.10;;;;;;6191771;23;20383;-94
2021/05/22 15:01:34;;;;;;;4.75;0.98;;;16.50;76.40;;;;;;6215073;23;20411;-94
2021/05/22 15:04:24;;;;;;;2.87;1.00;;;16.70;74.70;;;;;;6270015;22;20421;-96
2021/05/22 15:07:36;;;;;;;3.90;0.88;;;17.10;75.50;;;;;;6278523;22;20396;-95
2021/05/22 15:10:10;;;;;;;2.90;0.80;;;17.40;73.70;;;;;;6274267;22;20426;-95
2021/05/22 15:12:50;;;;;;;2.83;0.60;;;17.30;72.00;;;;;;6232233;23;20382;-95
2021/05/22 15:15:34;;;;;;;3.85;0.90;;;17.00;70.90;;;;;;6220300;23;20413;-96
2021/05/22 15:24:38;;;;;;;2.05;0.80;;;17.70;71.30;;;;;;6341984;22;20825;-95
2021/05/22 15:27:13;;;;;;;4.57;0.90;;;17.60;71.40;;;;;;6315466;22;20476;-96
2021/05/22 15:29:56;;;;;;;2.25;0.80;;;17.60;68.50;;;;;;6317304;22;20430;-95
2021/05/22 15:32:54;;;;;;;3.22;0.95;;;17.40;69.80;;;;;;6319260;22;20411;-94
2021/05/22 15:35:34;;;;;;;3.47;1.30;;;17.20;69.40;;;;;;6342557;22;20373;-96
2021/05/22 15:38:12;;;;;;;3.42;1.00;;;17.10;70.50;;;;;;6342685;22;20404;-95
2021/05/22 15:41:21;;;;;;;3.25;0.80;;;17.30;69.60;;;;;;6317071;22;20460;-95
2021/05/22 15:44:11;;;;;;;2.03;0.75;;;17.50;70.00;;;;;;6341379;22;20472;-94
2021/05/22 15:46:54;;;;;;;2.72;0.80;;;17.70;68.10;;;;;;6217146;23;20478;-94
2021/05/22 15:58:53;;;;;;;4.07;1.00;;;16.30;70.00;;;;;;6343033;22;20361;-96
2021/05/22 16:08:26;;;;;;;2.67;0.80;;;17.10;71.40;;;;;;6339378;22;20391;-95
2021/05/22 16:11:36;;;;;;;2.63;0.80;;;16.80;70.70;;;;;;6317808;22;20384;-95
2021/05/22 16:14:38;;;;;;;3.40;0.90;;;16.40;72.80;;;;;;6293553;22;20429;-96
2021/05/22 16:17:10;;;;;;;2.50;0.80;;;16.60;73.40;;;;;;6316574;22;20452;-95
2021/05/22 16:19:52;;;;;;;3.30;0.90;;;16.50;72.00;;;;;;6316456;22;20472;-94
2021/05/22 16:26:00;;;;;;;2.72;0.73;;;16.80;71.70;;;;;;6341936;22;20460;-95
2021/05/22 16:28:41;;;;;;;4.97;0.80;;;16.70;73.00;;;;;;6319518;22;20452;-96
2021/05/22 16:31:48;;;;;;;2.35;0.85;;;16.80;72.20;;;;;;6308139;22;20426;-96
2021/05/22 16:34:46;;;;;;;5.28;1.20;;;17.00;72.20;;;;;;6218742;23;20384;-96
2021/05/22 16:37:51;;;;;;;;;;;;;;;;;;;;;
2021/05/22 16:40:31;;;;;;;3.13;0.90;;;17.40;75.10;;;;;;6346119;22;20438;-95
2021/05/22 16:46:00;;;;;;;3.00;1.10;;;17.00;74.10;;;;;;6333972;22;20388;-96
2021/05/22 16:55:43;;;;;;;4.57;0.90;;;17.10;72.60;;;;;;6292254;22;20388;-95
2021/05/22 16:58:39;;;;;;;3.60;0.90;;;17.10;73.10;;;;;;6315678;22;20381;-96
2021/05/22 17:07:03;;;;;;;3.85;1.02;;;16.80;74.20;;;;;;6347347;22;20389;-96
2021/05/22 17:10:03;;;;;;;4.70;1.20;;;16.60;73.50;;;;;;6320133;22;20395;-96
2021/05/22 17:13:01;;;;;;;3.45;1.05;;;16.50;74.70;;;;;;6317891;22;20865;-95
2021/05/22 17:15:38;;;;;;;2.50;0.95;;;16.50;75.70;;;;;;6311867;22;20410;-96
2021/05/22 17:18:11;;;;;;;3.85;0.90;;;16.40;74.50;;;;;;6284486;22;20696;-95
2021/05/22 17:20:52;;;;;;;4.60;1.13;;;16.20;75.40;;;;;;6284989;22;20390;-95
2021/05/22 17:23:43;;;;;;;5.90;1.20;;;16.20;76.10;;;;;;6247707;23;20522;-96
2021/05/22 17:26:33;;;;;;;2.80;0.85;;;16.10;77.10;;;;;;6221862;23;20386;-95
2021/05/22 17:39:04;;;;;;;3.85;1.08;;;15.80;78.20;;;;;;6343552;22;20416;-95
2021/05/22 17:42:03;;;;;;;3.97;1.13;;;15.60;79.90;;;;;;6319324;22;20468;-96
2021/05/22 17:51:33;;;;;;;3.90;1.17;;;15.20;83.10;;;;;;6274010;22;20419;-96
2021/05/22 17:58:11;;;;;;;4.00;1.35;;;14.90;86.30;;;;;;6258445;22;20381;-93
2021/05/22 18:00:49;;;;;;;4.85;1.20;;;14.80;86.90;;;;;;6315162;22;20385;-95
2021/05/22 18:03:35;;;;;;;4.70;1.25;;;14.90;87.30;;;;;;6315107;22;20385;-95
2021/05/22 18:06:23;;;;;;;3.85;1.00;;;14.60;88.30;;;;;;6314510;22;20381;-96
2021/05/22 18:09:10;;;;;;;5.30;1.90;;;14.40;89.40;;;;;;6314001;22;20410;-96
2021/05/22 18:11:37;;;;;;;7.20;2.25;;;14.10;90.30;;;;;;6315326;22;20368;-95
2021/05/22 18:14:09;;;;;;;5.63;2.30;;;13.90;90.90;;;;;;6309509;22;20426;-96
2021/05/22 18:17:06;;;;;;;6.35;2.25;;;13.70;91.20;;;;;;6330885;22;20373;-95
2021/05/22 18:19:34;;;;;;;8.80;2.25;;;13.60;92.00;;;;;;6336389;22;20361;-95
2021/05/22 18:22:09;;;;;;;9.93;3.13;;;13.30;92.20;;;;;;6335556;22;20392;-96
2021/05/22 18:24:36;;;;;;;6.40;2.20;;;13.00;93.40;;;;;;6336499;22;20871;-94
2021/05/22 18:27:06;;;;;;;12.93;3.90;;;12.70;94.70;;;;;;6318923;22;20389;-96
2021/05/22 18:29:34;;;;;;;10.73;4.53;;;12.40;96.00;;;;;;6313008;22;20385;-96
2021/05/22 18:32:14;;;;;;;10.88;4.85;;;12.20;97.40;;;;;;6314491;22;20381;-95
2021/05/22 18:34:48;;;;;;;10.30;3.88;;;12.00;98.70;;;;;;6315355;22;20392;-96
2021/05/22 18:37:18;;;;;;;12.95;5.47;;;11.80;99.50;;;;;;6313406;22;20392;-96
2021/05/22 18:39:50;;;;;;;5.22;2.38;;;11.60;99.90;;;;;;6313894;22;20385;-96
2021/05/22 18:42:28;;;;;;;7.78;2.80;;;11.50;99.90;;;;;;6313060;22;20389;-96
2021/05/22 18:45:04;;;;;;;7.22;3.00;;;11.40;99.90;;;;;;6315238;22;20435;-96
2021/05/22 18:47:37;;;;;;;5.18;2.20;;;11.20;99.90;;;;;;6315261;22;20400;-96
2021/05/22 18:50:16;;;;;;;6.90;1.93;;;11.10;99.90;;;;;;6314470;22;20415;-96
2021/05/22 18:52:50;;;;;;;5.57;1.80;;;10.90;99.90;;;;;;6315892;22;20416;-96
2021/05/22 18:55:47;;;;;;;5.22;1.48;;;10.70;99.90;;;;;;6320054;22;20364;-96
2021/05/22 19:01:55;;;;;;;5.77;1.90;;;10.40;99.90;;;;;;6250312;23;20397;-96
2021/05/22 19:04:31;;;;;;;5.37;2.23;;;10.30;99.90;;;;;;6225817;23;20431;-96
2021/05/22 19:07:01;;;;;;;12.30;3.10;;;10.30;99.90;;;;;;6222944;23;21211;-96
2021/05/22 19:09:42;;;;;;;5.45;2.25;;;10.20;99.90;;;;;;6247119;22;21118;-93
2021/05/22 19:12:09;;;;;;;6.15;2.10;;;10.10;99.90;;;;;;6314334;22;20364;-94
2021/05/22 19:22:40;;;;;;;4.75;2.03;;;9.90;99.90;;;;;;6268297;22;20390;-95
2021/05/22 19:25:28;;;;;;;4.30;1.60;;;9.70;99.90;;;;;;6252938;22;20693;-96
2021/05/22 19:27:59;;;;;;;4.95;1.60;;;9.60;99.90;;;;;;6251624;22;20416;-94
2021/05/22 19:30:27;;;;;;;5.10;1.92;;;9.50;99.90;;;;;;6252222;22;20384;-94
2021/05/22 19:32:59;;;;;;;5.35;1.92;;;9.40;99.90;;;;;;6254166;22;20384;-94
2021/05/22 19:35:29;;;;;;;6.78;1.90;;;9.20;99.90;;;;;;6252111;22;20384;-94
2021/05/22 19:38:51;;;;;;;;;;;;;;;;;;;;;
2021/05/22 19:41:56;;;;;;;5.07;1.67;;;9.20;99.90;;;;;;6226988;22;20397;31
2021/05/22 19:45:31;;;;;;;7.03;2.20;;;9.00;99.90;;;;;;6184005;23;20384;-95
2021/05/22 19:52:24;;;;;;;7.78;2.33;;;8.90;99.90;;;;;;6349002;22;20383;-95
2021/05/22 19:58:42;;;;;;;9.52;3.22;;;8.40;99.90;;;;;;6217451;23;20392;-94
2021/05/22 20:01:12;;;;;;;21.83;8.32;;;8.30;99.90;;;;;;6174276;23;20412;-95
2021/05/22 20:03:43;;;;;;;23.77;8.05;;;8.20;99.90;;;;;;6191511;23;20392;-95
2021/05/22 20:06:14;;;;;;;26.35;9.93;;;8.20;99.90;;;;;;6208707;22;20392;-96
2021/05/22 20:08:53;;;;;;;29.47;11.07;;;8.00;99.90;;;;;;6346263;22;20391;-96
2021/05/22 20:11:21;;;;;;;28.30;10.15;;;7.90;99.90;;;;;;6347297;22;20435;-94
2021/05/22 20:13:51;;;;;;;21.17;7.95;;;7.90;99.90;;;;;;6345985;22;20379;-95
2021/05/22 20:16:21;;;;;;;22.20;9.20;;;7.90;99.90;;;;;;6347447;22;20402;-95
2021/05/22 20:18:50;;;;;;;17.50;8.45;;;7.90;99.90;;;;;;6347039;22;20379;-95
2021/05/22 20:21:20;;;;;;;22.85;8.13;;;7.90;99.90;;;;;;6345570;22;20379;-96
2021/05/22 20:23:47;;;;;;;17.52;6.70;;;7.80;99.90;;;;;;6345905;22;20375;-95
2021/05/22 20:26:14;;;;;;;16.88;6.50;;;7.70;99.90;;;;;;6345455;22;20379;-93
2021/05/22 20:28:45;;;;;;;18.42;7.68;;;7.80;99.90;;;;;;6345898;22;20391;-94
2021/05/22 20:31:13;;;;;;;17.50;6.43;;;7.80;99.90;;;;;;6345621;22;20792;-94
2021/05/22 20:33:40;;;;;;;18.10;6.43;;;7.80;99.90;;;;;;6345789;22;20380;-95
2021/05/22 20:36:11;;;;;;;16.50;6.47;;;7.60;99.90;;;;;;6345882;22;20375;-95
2021/05/22 20:38:40;;;;;;;18.35;7.15;;;7.50;99.90;;;;;;6344805;22;20425;-95
2021/05/22 20:41:08;;;;;;;23.53;8.20;;;7.50;99.90;;;;;;6344653;22;20383;-95
2021/05/22 20:43:36;;;;;;;16.67;6.23;;;7.50;99.90;;;;;;6344886;22;20408;-95
2021/05/22 20:46:06;;;;;;;17.03;6.80;;;7.70;99.90;;;;;;6345183;22;20416;-94
2021/05/22 20:48:33;;;;;;;14.50;6.18;;;7.70;99.90;;;;;;6356018;22;20394;-95
2021/05/22 20:51:00;;;;;;;16.35;6.07;;;7.60;99.90;;;;;;6365012;22;20387;-94
2021/05/22 20:53:27;;;;;;;13.65;5.78;;;7.60;99.90;;;;;;6347545;22;20398;-95
2021/05/22 20:55:55;;;;;;;11.25;5.20;;;7.60;99.90;;;;;;6344407;22;20382;-95
2021/05/22 20:58:23;;;;;;;12.90;4.90;;;7.80;99.90;;;;;;6343602;22;20386;-94
2021/05/22 21:00:51;;;;;;;9.30;3.80;;;7.70;99.90;;;;;;6344054;22;20458;-95
2021/05/22 21:03:19;;;;;;;13.60;4.90;;;7.60;99.90;;;;;;6343738;22;20379;-95
2021/05/22 21:05:46;;;;;;;9.13;3.30;;;7.50;99.90;;;;;;6348212;22;20454;-94
2021/05/22 21:08:14;;;;;;;10.38;2.80;;;7.60;99.90;;;;;;6373103;22;20391;-95
2021/05/22 21:10:43;;;;;;;10.70;2.60;;;7.80;99.90;;;;;;6344789;22;20379;-95
2021/05/22 21:13:15;;;;;;;6.03;2.42;;;7.90;99.90;;;;;;6344670;22;20387;-96
2021/05/22 21:16:00;;;;;;;7.32;2.20;;;8.00;99.90;;;;;;6347525;22;20736;-95
2021/05/22 21:18:28;;;;;;;5.75;2.20;;;8.00;99.90;;;;;;6344994;22;20407;-94
2021/05/22 21:21:05;;;;;;;6.25;2.03;;;7.90;99.90;;;;;;6344399;22;20375;-95
2021/05/22 21:23:33;;;;;;;7.15;2.08;;;7.80;99.90;;;;;;6344267;22;20507;-95
2021/05/22 21:26:02;;;;;;;6.40;2.08;;;7.80;99.90;;;;;;6343674;22;20453;-94
2021/05/22 21:28:30;;;;;;;6.00;2.10;;;7.90;99.90;;;;;;6343918;22;20391;-96
2021/05/22 21:30:58;;;;;;;4.88;1.77;;;7.90;99.90;;;;;;6343529;22;20712;-94
2021/05/22 21:33:25;;;;;;;5.35;2.05;;;7.90;99.90;;;;;;6344203;22;20843;-95
2021/05/22 21:35:53;;;;;;;5.22;1.98;;;7.90;99.90;;;;;;6343745;22;20462;-94
2021/05/22 21:38:21;;;;;;;5.13;1.83;;;8.00;99.90;;;;;;6343289;22;20379;-94
2021/05/22 21:40:51;;;;;;;5.82;2.10;;;7.80;99.90;;;;;;6343539;22;20405;-93
2021/05/22 21:43:18;;;;;;;4.43;1.80;;;7.80;99.90;;;;;;6344018;22;20461;-94
2021/05/22 21:45:45;;;;;;;4.83;1.63;;;7.80;99.90;;;;;;6343436;22;20375;-94
2021/05/22 21:48:12;;;;;;;5.07;1.70;;;7.60;99.90;;;;;;6343282;22;20700;-95
2021/05/22 21:50:40;;;;;;;3.77;1.70;;;7.60;99.90;;;;;;6344350;22;20688;-94
2021/05/22 21:53:07;;;;;;;4.28;1.45;;;7.60;99.90;;;;;;6344179;22;20466;-96
2021/05/22 21:55:35;;;;;;;4.32;1.40;;;7.70;99.90;;;;;;6343403;22;20383;-95
2021/05/22 21:58:06;;;;;;;7.97;1.50;;;7.80;99.90;;;;;;6343000;22;20432;-94
2021/05/22 22:00:42;;;;;;;5.30;1.50;;;8.00;99.90;;;;;;6343851;22;20850;-95
2021/05/22 22:03:18;;;;;;;4.70;1.60;;;8.10;99.90;;;;;;6344496;22;20390;-95
2021/05/22 22:05:47;;;;;;;6.13;1.60;;;8.00;99.90;;;;;;6343628;22;20866;-94
2021/05/22 22:08:16;;;;;;;3.53;1.48;;;8.20;99.90;;;;;;6343273;22;20398;-95
2021/05/22 22:10:43;;;;;;;3.00;1.40;;;8.20;99.90;;;;;;6343249;22;20428;-94
2021/05/22 22:13:11;;;;;;;5.00;1.67;;;8.20;99.90;;;;;;6343106;22;20433;-94
2021/05/22 22:15:39;;;;;;;5.53;1.60;;;8.20;99.90;;;;;;6343446;22;20403;-95
2021/05/22 22:18:08;;;;;;;3.40;1.30;;;8.20;99.90;;;;;;6352768;22;20390;-96
2021/05/22 22:20:45;;;;;;;5.32;1.65;;;8.10;99.90;;;;;;6354317;22;20379;-95